Bookmark and Share
Track history (hours):
 

Paddy Guidry

More information available from US FCC via Universal Licensing System and Coast Guard Vessel Documentation Center.

Last reported at 2014-Apr-22 20:12 UTC. Time now 2014-Apr-23 12:39 UTC.
Position N 29°42' W 091°31'.

; draft 1.5 m.

Type: Tug. MMSI: 366998310.

NotesDate/timePositionNaut miles runAvg speedWind from/ knotsBaromVisibWave heightAir tempDewpointWater temp
2014-Apr-22 20:12N 29°42' W 091°31'6 8.3
2014-Apr-22 19:32N 29°39' W 091°25'7 7.7
2014-Apr-22 18:34N 29°39' W 091°17'5 4.8
2014-Apr-22 17:34N 29°41' W 091°12'0 0.0
2014-Apr-22 16:34N 29°41' W 091°12'0 0.0
2014-Apr-22 15:34N 29°41' W 091°12'0 0.0
2014-Apr-22 14:34N 29°41' W 091°12'0 0.0
2014-Apr-22 13:34N 29°41' W 091°12'0 0.0
2014-Apr-22 12:34N 29°41' W 091°12'0 0.0
2014-Apr-22 11:34N 29°41' W 091°12'0 0.0
2014-Apr-22 10:34N 29°41' W 091°12'0 0.0
2014-Apr-22 09:34N 29°41' W 091°12'0 0.0
2014-Apr-22 08:33N 29°41' W 091°12'0 0.0
2014-Apr-22 07:33N 29°41' W 091°12'0 0.0
2014-Apr-22 06:34N 29°41' W 091°12'0 0.0
2014-Apr-22 05:34N 29°41' W 091°12'0 0.0
2014-Apr-22 04:33N 29°41' W 091°12'0 0.0
2014-Apr-22 03:34N 29°41' W 091°12'0 0.0
2014-Apr-22 02:34N 29°41' W 091°12'0 0.0
2014-Apr-22 01:34N 29°41' W 091°12'0 0.0
2014-Apr-22 00:34N 29°41' W 091°12'0 0.0
2014-Apr-21 23:34N 29°41' W 091°12'0 0.0
2014-Apr-21 22:34N 29°41' W 091°12'2 2.5
2014-Apr-21 21:34N 29°40' W 091°14'0 0.0
2014-Apr-21 20:34N 29°40' W 091°14'2 2.4
2014-Apr-21 19:34N 29°41' W 091°12'0 0.0
2014-Apr-21 18:34N 29°41' W 091°12'0 0.0
2014-Apr-21 17:33N 29°41' W 091°12'0 0.0
2014-Apr-21 16:34N 29°41' W 091°12'0 0.0
2014-Apr-21 15:34N 29°41' W 091°12'0 0.0
2014-Apr-21 14:34N 29°41' W 091°12'0 0.0
2014-Apr-21 13:34N 29°41' W 091°12'0 0.2
2014-Apr-21 12:34N 29°41' W 091°12'0 0.0
2014-Apr-21 11:34N 29°41' W 091°12'0 0.0
2014-Apr-21 10:34N 29°41' W 091°12'0 0.0
2014-Apr-21 09:34N 29°41' W 091°12'0 0.0
2014-Apr-21 08:34N 29°41' W 091°12'0 0.0
2014-Apr-21 07:34N 29°41' W 091°12'0 0.0
2014-Apr-21 06:34N 29°41' W 091°12'0 0.0
2014-Apr-21 05:34N 29°41' W 091°12'0 0.2
2014-Apr-21 04:34N 29°41' W 091°12'2 1.6
2014-Apr-21 03:34N 29°41' W 091°10'4 4.2
2014-Apr-21 02:34N 29°38' W 091°06'6 5.8
2014-Apr-21 01:34N 29°37' W 090°60'17 1.4
2014-Apr-20 13:30N 29°36' W 090°40'  

Dump ship's entire track history

sailing weather and tide predictions

Paddy Guidry — WTG3900 — position and weather